sensor_id;sensor_type;location;lat;lon;timestamp;P1;durP1;ratioP1;P2;durP2;ratioP2
65581;SDS011;52231;40.090;18.348;2022-09-03T00:02:06;5.63;;;1.50;;
65581;SDS011;52231;40.090;18.348;2022-09-03T00:07:19;3.22;;;1.30;;
65581;SDS011;52231;40.090;18.348;2022-09-03T00:10:07;9.23;;;1.70;;
65581;SDS011;52231;40.090;18.348;2022-09-03T00:12:40;6.07;;;1.40;;
65581;SDS011;52231;40.090;18.348;2022-09-03T00:15:12;8.98;;;1.48;;
65581;SDS011;52231;40.090;18.348;2022-09-03T00:18:04;2.58;;;1.35;;
65581;SDS011;52231;40.090;18.348;2022-09-03T00:23:27;5.30;;;1.40;;
65581;SDS011;52231;40.090;18.348;2022-09-03T00:25:59;2.65;;;1.35;;
65581;SDS011;52231;40.090;18.348;2022-09-03T00:28:41;2.97;;;1.23;;
65581;SDS011;52231;40.090;18.348;2022-09-03T00:31:16;5.95;;;1.58;;
65581;SDS011;52231;40.090;18.348;2022-09-03T00:36:58;4.03;;;1.60;;
65581;SDS011;52231;40.090;18.348;2022-09-03T00:39:26;6.28;;;1.85;;
65581;SDS011;52231;40.090;18.348;2022-09-03T00:45:08;4.55;;;1.52;;
65581;SDS011;52231;40.090;18.348;2022-09-03T00:59:03;4.45;;;1.98;;
65581;SDS011;52231;40.090;18.348;2022-09-03T01:02:10;5.13;;;1.25;;
65581;SDS011;52231;40.090;18.348;2022-09-03T01:10:15;4.82;;;1.50;;
65581;SDS011;52231;40.090;18.348;2022-09-03T01:27:04;5.65;;;1.67;;
65581;SDS011;52231;40.090;18.348;2022-09-03T01:46:23;6.80;;;1.50;;
65581;SDS011;52231;40.090;18.348;2022-09-03T01:51:59;5.72;;;1.38;;
65581;SDS011;52231;40.090;18.348;2022-09-03T01:57:19;3.85;;;1.23;;
65581;SDS011;52231;40.090;18.348;2022-09-03T01:59:58;7.20;;;1.40;;
65581;SDS011;52231;40.090;18.348;2022-09-03T02:02:41;9.63;;;1.60;;
65581;SDS011;52231;40.090;18.348;2022-09-03T02:05:15;4.53;;;1.30;;
65581;SDS011;52231;40.090;18.348;2022-09-03T02:07:57;4.07;;;1.27;;
65581;SDS011;52231;40.090;18.348;2022-09-03T02:13:26;2.95;;;1.30;;
65581;SDS011;52231;40.090;18.348;2022-09-03T02:16:14;5.03;;;1.40;;
65581;SDS011;52231;40.090;18.348;2022-09-03T02:18:51;3.58;;;1.30;;
65581;SDS011;52231;40.090;18.348;2022-09-03T02:21:33;5.03;;;1.42;;
65581;SDS011;52231;40.090;18.348;2022-09-03T02:24:04;5.22;;;1.50;;
65581;SDS011;52231;40.090;18.348;2022-09-03T02:26:34;8.02;;;1.35;;
65581;SDS011;52231;40.090;18.348;2022-09-03T02:29:02;6.55;;;1.52;;
65581;SDS011;52231;40.090;18.348;2022-09-03T02:33:58;10.23;;;1.60;;
65581;SDS011;52231;40.090;18.348;2022-09-03T02:36:28;3.25;;;1.33;;
65581;SDS011;52231;40.090;18.348;2022-09-03T02:38:59;6.88;;;1.80;;
65581;SDS011;52231;40.090;18.348;2022-09-03T02:43:57;4.60;;;1.40;;
65581;SDS011;52231;40.090;18.348;2022-09-03T02:46:38;6.47;;;1.50;;
65581;SDS011;52231;40.090;18.348;2022-09-03T02:49:13;10.05;;;1.92;;
65581;SDS011;52231;40.090;18.348;2022-09-03T02:51:41;4.85;;;1.50;;
65581;SDS011;52231;40.090;18.348;2022-09-03T02:54:11;5.85;;;1.30;;
65581;SDS011;52231;40.090;18.348;2022-09-03T02:56:41;2.92;;;1.33;;
65581;SDS011;52231;40.090;18.348;2022-09-03T02:59:09;3.60;;;1.42;;
65581;SDS011;52231;40.090;18.348;2022-09-03T03:01:37;2.53;;;1.25;;
65581;SDS011;52231;40.090;18.348;2022-09-03T03:04:05;3.53;;;1.42;;
65581;SDS011;52231;40.090;18.348;2022-09-03T03:06:33;4.10;;;1.70;;
65581;SDS011;52231;40.090;18.348;2022-09-03T03:09:02;3.35;;;1.55;;
65581;SDS011;52231;40.090;18.348;2022-09-03T03:11:31;4.72;;;1.90;;
65581;SDS011;52231;40.090;18.348;2022-09-03T03:14:00;3.70;;;1.70;;
65581;SDS011;52231;40.090;18.348;2022-09-03T03:16:28;5.63;;;1.70;;
65581;SDS011;52231;40.090;18.348;2022-09-03T03:18:56;2.80;;;1.60;;
65581;SDS011;52231;40.090;18.348;2022-09-03T03:21:24;3.45;;;1.80;;
65581;SDS011;52231;40.090;18.348;2022-09-03T03:23:53;5.32;;;1.88;;
65581;SDS011;52231;40.090;18.348;2022-09-03T03:26:21;5.65;;;1.75;;
65581;SDS011;52231;40.090;18.348;2022-09-03T03:28:55;5.43;;;1.90;;
65581;SDS011;52231;40.090;18.348;2022-09-03T03:31:26;5.95;;;1.70;;
65581;SDS011;52231;40.090;18.348;2022-09-03T03:33:54;5.40;;;1.85;;
65581;SDS011;52231;40.090;18.348;2022-09-03T03:36:26;5.00;;;1.85;;
65581;SDS011;52231;40.090;18.348;2022-09-03T03:38:56;4.57;;;1.50;;
65581;SDS011;52231;40.090;18.348;2022-09-03T03:41:29;4.28;;;1.60;;
65581;SDS011;52231;40.090;18.348;2022-09-03T03:44:00;5.18;;;1.73;;
65581;SDS011;52231;40.090;18.348;2022-09-03T03:46:32;3.75;;;1.75;;
65581;SDS011;52231;40.090;18.348;2022-09-03T03:49:01;4.90;;;1.85;;
65581;SDS011;52231;40.090;18.348;2022-09-03T03:51:30;4.57;;;1.80;;
65581;SDS011;52231;40.090;18.348;2022-09-03T03:53:59;4.53;;;2.13;;
65581;SDS011;52231;40.090;18.348;2022-09-03T03:56:30;8.13;;;1.85;;
65581;SDS011;52231;40.090;18.348;2022-09-03T03:58:59;4.13;;;2.28;;
65581;SDS011;52231;40.090;18.348;2022-09-03T04:01:27;6.45;;;1.90;;
65581;SDS011;52231;40.090;18.348;2022-09-03T04:03:56;4.00;;;2.00;;
65581;SDS011;52231;40.090;18.348;2022-09-03T04:06:26;5.38;;;1.90;;
65581;SDS011;52231;40.090;18.348;2022-09-03T04:08:55;8.52;;;1.80;;
65581;SDS011;52231;40.090;18.348;2022-09-03T04:11:23;7.25;;;1.73;;
65581;SDS011;52231;40.090;18.348;2022-09-03T04:13:52;6.75;;;2.00;;
65581;SDS011;52231;40.090;18.348;2022-09-03T04:16:24;4.07;;;1.95;;
65581;SDS011;52231;40.090;18.348;2022-09-03T04:18:54;5.30;;;1.83;;
65581;SDS011;52231;40.090;18.348;2022-09-03T04:21:24;4.40;;;2.22;;
65581;SDS011;52231;40.090;18.348;2022-09-03T04:23:54;5.45;;;2.05;;
65581;SDS011;52231;40.090;18.348;2022-09-03T04:26:24;6.10;;;2.10;;
65581;SDS011;52231;40.090;18.348;2022-09-03T04:28:58;5.25;;;1.92;;
65581;SDS011;52231;40.090;18.348;2022-09-03T04:31:27;8.40;;;2.20;;
65581;SDS011;52231;40.090;18.348;2022-09-03T04:33:56;6.45;;;1.92;;
65581;SDS011;52231;40.090;18.348;2022-09-03T04:36:28;5.93;;;2.20;;
65581;SDS011;52231;40.090;18.348;2022-09-03T04:38:58;7.15;;;2.25;;
65581;SDS011;52231;40.090;18.348;2022-09-03T04:41:28;6.10;;;2.70;;
65581;SDS011;52231;40.090;18.348;2022-09-03T04:43:58;6.93;;;2.90;;
65581;SDS011;52231;40.090;18.348;2022-09-03T04:46:27;6.93;;;3.55;;
65581;SDS011;52231;40.090;18.348;2022-09-03T04:49:01;5.10;;;2.30;;
65581;SDS011;52231;40.090;18.348;2022-09-03T04:51:30;6.45;;;2.05;;
65581;SDS011;52231;40.090;18.348;2022-09-03T04:53:59;4.90;;;2.10;;
65581;SDS011;52231;40.090;18.348;2022-09-03T04:56:29;4.50;;;1.80;;
65581;SDS011;52231;40.090;18.348;2022-09-03T04:59:08;7.60;;;2.15;;
65581;SDS011;52231;40.090;18.348;2022-09-03T05:01:37;4.55;;;1.95;;
65581;SDS011;52231;40.090;18.348;2022-09-03T05:04:24;6.70;;;1.80;;
65581;SDS011;52231;40.090;18.348;2022-09-03T05:09:20;4.63;;;1.80;;
65581;SDS011;52231;40.090;18.348;2022-09-03T05:11:48;5.35;;;1.80;;
65581;SDS011;52231;40.090;18.348;2022-09-03T05:16:44;6.80;;;1.80;;
65581;SDS011;52231;40.090;18.348;2022-09-03T05:19:13;3.88;;;1.88;;
65581;SDS011;52231;40.090;18.348;2022-09-03T05:21:41;6.05;;;1.90;;
65581;SDS011;52231;40.090;18.348;2022-09-03T05:24:09;6.15;;;1.60;;
65581;SDS011;52231;40.090;18.348;2022-09-03T05:29:06;4.95;;;1.70;;
65581;SDS011;52231;40.090;18.348;2022-09-03T05:31:37;4.88;;;1.63;;
65581;SDS011;52231;40.090;18.348;2022-09-03T05:34:06;4.00;;;1.60;;
65581;SDS011;52231;40.090;18.348;2022-09-03T05:36:35;4.35;;;1.70;;
65581;SDS011;52231;40.090;18.348;2022-09-03T05:39:05;5.45;;;1.92;;
65581;SDS011;52231;40.090;18.348;2022-09-03T05:41:33;5.45;;;1.98;;
65581;SDS011;52231;40.090;18.348;2022-09-03T05:44:01;8.98;;;2.15;;
65581;SDS011;52231;40.090;18.348;2022-09-03T05:46:31;5.63;;;1.55;;
65581;SDS011;52231;40.090;18.348;2022-09-03T05:49:01;5.20;;;1.65;;
65581;SDS011;52231;40.090;18.348;2022-09-03T05:51:32;2.97;;;1.58;;
65581;SDS011;52231;40.090;18.348;2022-09-03T05:54:02;5.80;;;1.75;;
65581;SDS011;52231;40.090;18.348;2022-09-03T05:56:31;5.72;;;1.70;;
65581;SDS011;52231;40.090;18.348;2022-09-03T05:59:03;4.00;;;1.63;;
65581;SDS011;52231;40.090;18.348;2022-09-03T06:01:36;4.88;;;2.03;;
65581;SDS011;52231;40.090;18.348;2022-09-03T06:04:07;7.82;;;2.42;;
65581;SDS011;52231;40.090;18.348;2022-09-03T06:06:40;5.53;;;1.92;;
65581;SDS011;52231;40.090;18.348;2022-09-03T06:09:11;8.73;;;2.33;;
65581;SDS011;52231;40.090;18.348;2022-09-03T06:11:43;12.73;;;3.10;;
65581;SDS011;52231;40.090;18.348;2022-09-03T06:14:12;8.73;;;2.90;;
65581;SDS011;52231;40.090;18.348;2022-09-03T06:16:44;8.20;;;3.33;;
65581;SDS011;52231;40.090;18.348;2022-09-03T06:19:15;10.68;;;3.00;;
65581;SDS011;52231;40.090;18.348;2022-09-03T06:21:44;8.18;;;3.00;;
65581;SDS011;52231;40.090;18.348;2022-09-03T06:24:17;8.30;;;2.85;;
65581;SDS011;52231;40.090;18.348;2022-09-03T06:26:49;6.07;;;2.10;;
65581;SDS011;52231;40.090;18.348;2022-09-03T06:29:18;7.40;;;2.00;;
65581;SDS011;52231;40.090;18.348;2022-09-03T06:31:46;4.72;;;1.60;;
65581;SDS011;52231;40.090;18.348;2022-09-03T06:34:14;2.97;;;1.60;;
65581;SDS011;52231;40.090;18.348;2022-09-03T06:36:45;4.55;;;1.80;;
65581;SDS011;52231;40.090;18.348;2022-09-03T06:39:13;5.68;;;1.50;;
65581;SDS011;52231;40.090;18.348;2022-09-03T06:41:41;7.35;;;1.85;;
65581;SDS011;52231;40.090;18.348;2022-09-03T06:44:11;3.70;;;1.60;;
65581;SDS011;52231;40.090;18.348;2022-09-03T06:46:39;6.28;;;1.73;;
65581;SDS011;52231;40.090;18.348;2022-09-03T06:49:09;5.55;;;1.73;;
65581;SDS011;52231;40.090;18.348;2022-09-03T06:51:38;4.90;;;1.80;;
65581;SDS011;52231;40.090;18.348;2022-09-03T06:54:07;4.90;;;1.80;;
65581;SDS011;52231;40.090;18.348;2022-09-03T06:56:38;3.97;;;1.70;;
65581;SDS011;52231;40.090;18.348;2022-09-03T06:59:08;3.90;;;1.83;;
65581;SDS011;52231;40.090;18.348;2022-09-03T07:01:40;6.43;;;2.08;;
65581;SDS011;52231;40.090;18.348;2022-09-03T07:04:12;5.35;;;2.00;;
65581;SDS011;52231;40.090;18.348;2022-09-03T07:06:43;7.90;;;2.03;;
65581;SDS011;52231;40.090;18.348;2022-09-03T07:09:12;6.18;;;2.08;;
65581;SDS011;52231;40.090;18.348;2022-09-03T07:11:41;5.13;;;2.00;;
65581;SDS011;52231;40.090;18.348;2022-09-03T07:14:15;6.45;;;2.05;;
65581;SDS011;52231;40.090;18.348;2022-09-03T07:16:47;6.20;;;1.83;;
65581;SDS011;52231;40.090;18.348;2022-09-03T07:19:17;4.72;;;2.05;;
65581;SDS011;52231;40.090;18.348;2022-09-03T07:21:45;5.30;;;1.92;;
65581;SDS011;52231;40.090;18.348;2022-09-03T07:24:15;6.10;;;2.08;;
65581;SDS011;52231;40.090;18.348;2022-09-03T07:27:03;6.82;;;2.00;;
65581;SDS011;52231;40.090;18.348;2022-09-03T07:29:34;7.00;;;2.33;;
65581;SDS011;52231;40.090;18.348;2022-09-03T07:32:02;5.57;;;1.83;;
65581;SDS011;52231;40.090;18.348;2022-09-03T07:34:30;5.97;;;2.40;;
65581;SDS011;52231;40.090;18.348;2022-09-03T07:37:01;5.47;;;2.10;;
65581;SDS011;52231;40.090;18.348;2022-09-03T07:39:32;3.55;;;1.60;;
65581;SDS011;52231;40.090;18.348;2022-09-03T07:42:00;2.72;;;1.45;;
65581;SDS011;52231;40.090;18.348;2022-09-03T07:44:29;5.40;;;1.70;;
65581;SDS011;52231;40.090;18.348;2022-09-03T07:46:57;5.43;;;1.70;;
65581;SDS011;52231;40.090;18.348;2022-09-03T07:49:25;4.53;;;1.70;;
65581;SDS011;52231;40.090;18.348;2022-09-03T07:51:53;7.57;;;2.40;;
65581;SDS011;52231;40.090;18.348;2022-09-03T07:54:21;4.35;;;1.70;;
65581;SDS011;52231;40.090;18.348;2022-09-03T07:56:52;7.45;;;2.03;;
65581;SDS011;52231;40.090;18.348;2022-09-03T07:59:20;6.75;;;1.92;;
65581;SDS011;52231;40.090;18.348;2022-09-03T08:01:49;13.52;;;3.17;;
65581;SDS011;52231;40.090;18.348;2022-09-03T08:04:17;5.93;;;2.20;;
65581;SDS011;52231;40.090;18.348;2022-09-03T08:06:45;5.95;;;1.63;;
65581;SDS011;52231;40.090;18.348;2022-09-03T08:09:14;3.55;;;1.40;;
65581;SDS011;52231;40.090;18.348;2022-09-03T08:11:42;6.00;;;1.77;;
65581;SDS011;52231;40.090;18.348;2022-09-03T08:14:11;4.93;;;1.70;;
65581;SDS011;52231;40.090;18.348;2022-09-03T08:16:44;5.65;;;1.70;;
65581;SDS011;52231;40.090;18.348;2022-09-03T08:19:16;3.70;;;1.58;;
65581;SDS011;52231;40.090;18.348;2022-09-03T08:21:45;6.30;;;1.70;;
65581;SDS011;52231;40.090;18.348;2022-09-03T08:24:14;3.78;;;1.58;;
65581;SDS011;52231;40.090;18.348;2022-09-03T08:26:44;4.82;;;1.65;;
65581;SDS011;52231;40.090;18.348;2022-09-03T08:29:16;3.33;;;1.48;;
65581;SDS011;52231;40.090;18.348;2022-09-03T08:31:44;3.08;;;1.77;;
65581;SDS011;52231;40.090;18.348;2022-09-03T08:34:13;5.60;;;1.70;;
65581;SDS011;52231;40.090;18.348;2022-09-03T08:37:02;6.72;;;2.42;;
65581;SDS011;52231;40.090;18.348;2022-09-03T08:39:32;4.28;;;1.70;;
65581;SDS011;52231;40.090;18.348;2022-09-03T08:47:33;5.20;;;1.77;;
65581;SDS011;52231;40.090;18.348;2022-09-03T08:53:02;3.97;;;1.48;;
65581;SDS011;52231;40.090;18.348;2022-09-03T08:55:59;3.45;;;1.77;;
65581;SDS011;52231;40.090;18.348;2022-09-03T08:58:34;6.22;;;2.00;;
65581;SDS011;52231;40.090;18.348;2022-09-03T09:01:29;3.30;;;1.60;;
65581;SDS011;52231;40.090;18.348;2022-09-03T09:10:09;3.35;;;1.48;;
65581;SDS011;52231;40.090;18.348;2022-09-03T09:12:47;3.75;;;1.70;;
65581;SDS011;52231;40.090;18.348;2022-09-03T09:15:26;5.75;;;1.83;;
65581;SDS011;52231;40.090;18.348;2022-09-03T09:20:44;3.08;;;1.55;;
65581;SDS011;52231;40.090;18.348;2022-09-03T09:23:26;5.13;;;1.48;;
65581;SDS011;52231;40.090;18.348;2022-09-03T09:26:08;3.92;;;1.80;;
65581;SDS011;52231;40.090;18.348;2022-09-03T09:28:39;9.02;;;3.70;;
65581;SDS011;52231;40.090;18.348;2022-09-03T09:31:13;4.03;;;1.60;;
65581;SDS011;52231;40.090;18.348;2022-09-03T09:33:45;4.55;;;1.52;;
65581;SDS011;52231;40.090;18.348;2022-09-03T09:36:14;3.08;;;1.50;;
65581;SDS011;52231;40.090;18.348;2022-09-03T09:38:45;3.75;;;1.35;;
65581;SDS011;52231;40.090;18.348;2022-09-03T09:43:46;3.63;;;0.98;;
65581;SDS011;52231;40.090;18.348;2022-09-03T09:46:19;5.22;;;1.42;;
65581;SDS011;52231;40.090;18.348;2022-09-03T09:48:50;2.35;;;1.23;;
65581;SDS011;52231;40.090;18.348;2022-09-03T09:51:26;4.57;;;1.60;;
65581;SDS011;52231;40.090;18.348;2022-09-03T09:56:57;3.90;;;2.10;;
65581;SDS011;52231;40.090;18.348;2022-09-03T09:59:27;2.58;;;1.40;;
65581;SDS011;52231;40.090;18.348;2022-09-03T10:02:16;4.13;;;1.38;;
65581;SDS011;52231;40.090;18.348;2022-09-03T10:04:56;4.93;;;1.30;;
65581;SDS011;52231;40.090;18.348;2022-09-03T10:07:39;4.07;;;1.33;;
65581;SDS011;52231;40.090;18.348;2022-09-03T10:10:20;2.28;;;1.20;;
65581;SDS011;52231;40.090;18.348;2022-09-03T10:21:00;2.95;;;1.15;;
65581;SDS011;52231;40.090;18.348;2022-09-03T10:27:06;8.05;;;3.38;;
65581;SDS011;52231;40.090;18.348;2022-09-03T10:29:39;4.60;;;1.25;;
65581;SDS011;52231;40.090;18.348;2022-09-03T10:37:28;1.55;;;1.10;;
65581;SDS011;52231;40.090;18.348;2022-09-03T10:43:10;2.88;;;1.10;;
65581;SDS011;52231;40.090;18.348;2022-09-03T10:46:05;1.40;;;1.05;;
65581;SDS011;52231;40.090;18.348;2022-09-03T10:49:01;2.67;;;1.10;;
65581;SDS011;52231;40.090;18.348;2022-09-03T10:51:53;4.50;;;1.10;;
65581;SDS011;52231;40.090;18.348;2022-09-03T10:57:06;4.60;;;1.10;;
65581;SDS011;52231;40.090;18.348;2022-09-03T11:07:47;2.03;;;0.90;;
65581;SDS011;52231;40.090;18.348;2022-09-03T11:10:24;3.28;;;0.95;;
65581;SDS011;52231;40.090;18.348;2022-09-03T11:13:15;2.97;;;1.20;;
65581;SDS011;52231;40.090;18.348;2022-09-03T11:15:56;2.20;;;1.00;;
65581;SDS011;52231;40.090;18.348;2022-09-03T11:18:30;1.40;;;1.10;;
65581;SDS011;52231;40.090;18.348;2022-09-03T11:21:18;2.60;;;1.10;;
65581;SDS011;52231;40.090;18.348;2022-09-03T11:24:02;1.60;;;1.10;;
65581;SDS011;52231;40.090;18.348;2022-09-03T11:26:43;1.45;;;1.02;;
65581;SDS011;52231;40.090;18.348;2022-09-03T11:32:57;1.50;;;1.00;;
65581;SDS011;52231;40.090;18.348;2022-09-03T11:35:36;4.88;;;1.20;;
65581;SDS011;52231;40.090;18.348;2022-09-03T11:43:50;0.80;;;0.80;;
65581;SDS011;52231;40.090;18.348;2022-09-03T11:46:39;2.05;;;1.05;;
65581;SDS011;52231;40.090;18.348;2022-09-03T11:49:09;2.83;;;1.08;;
65581;SDS011;52231;40.090;18.348;2022-09-03T11:51:39;3.88;;;1.20;;
65581;SDS011;52231;40.090;18.348;2022-09-03T11:56:42;3.03;;;1.05;;
65581;SDS011;52231;40.090;18.348;2022-09-03T12:02:26;3.80;;;1.20;;
65581;SDS011;52231;40.090;18.348;2022-09-03T12:07:44;2.85;;;1.10;;
65581;SDS011;52231;40.090;18.348;2022-09-03T12:10:40;10.73;;;4.57;;
65581;SDS011;52231;40.090;18.348;2022-09-03T12:13:24;3.67;;;1.40;;
65581;SDS011;52231;40.090;18.348;2022-09-03T12:21:59;5.82;;;2.10;;
65581;SDS011;52231;40.090;18.348;2022-09-03T12:24:31;6.28;;;2.28;;
65581;SDS011;52231;40.090;18.348;2022-09-03T12:27:03;3.58;;;1.20;;
65581;SDS011;52231;40.090;18.348;2022-09-03T12:29:32;1.88;;;1.10;;
65581;SDS011;52231;40.090;18.348;2022-09-03T12:32:07;1.90;;;1.20;;
65581;SDS011;52231;40.090;18.348;2022-09-03T12:34:40;2.80;;;1.13;;
65581;SDS011;52231;40.090;18.348;2022-09-03T12:37:18;3.20;;;1.30;;
65581;SDS011;52231;40.090;18.348;2022-09-03T12:40:23;5.78;;;1.42;;
65581;SDS011;52231;40.090;18.348;2022-09-03T12:42:53;2.65;;;1.27;;
65581;SDS011;52231;40.090;18.348;2022-09-03T12:45:43;1.42;;;1.00;;
65581;SDS011;52231;40.090;18.348;2022-09-03T12:48:37;2.47;;;1.25;;
65581;SDS011;52231;40.090;18.348;2022-09-03T12:51:09;3.83;;;1.30;;
65581;SDS011;52231;40.090;18.348;2022-09-03T12:53:58;2.50;;;1.10;;
65581;SDS011;52231;40.090;18.348;2022-09-03T12:56:28;3.72;;;1.33;;
65581;SDS011;52231;40.090;18.348;2022-09-03T12:59:06;4.60;;;1.40;;
65581;SDS011;52231;40.090;18.348;2022-09-03T13:01:58;4.40;;;1.73;;
65581;SDS011;52231;40.090;18.348;2022-09-03T13:04:33;3.58;;;1.48;;
65581;SDS011;52231;40.090;18.348;2022-09-03T13:09:39;4.55;;;1.30;;
65581;SDS011;52231;40.090;18.348;2022-09-03T13:12:28;2.35;;;1.30;;
65581;SDS011;52231;40.090;18.348;2022-09-03T13:15:07;2.78;;;1.27;;
65581;SDS011;52231;40.090;18.348;2022-09-03T13:18:00;3.35;;;1.60;;
65581;SDS011;52231;40.090;18.348;2022-09-03T13:20:38;4.53;;;1.70;;
65581;SDS011;52231;40.090;18.348;2022-09-03T13:31:30;5.13;;;1.60;;
65581;SDS011;52231;40.090;18.348;2022-09-03T13:34:35;2.75;;;1.40;;
65581;SDS011;52231;40.090;18.348;2022-09-03T13:37:27;8.02;;;1.50;;
65581;SDS011;52231;40.090;18.348;2022-09-03T13:40:09;4.60;;;1.65;;
65581;SDS011;52231;40.090;18.348;2022-09-03T13:42:50;1.88;;;1.25;;
65581;SDS011;52231;40.090;18.348;2022-09-03T13:48:18;3.63;;;1.50;;
65581;SDS011;52231;40.090;18.348;2022-09-03T13:56:56;3.78;;;1.48;;
65581;SDS011;52231;40.090;18.348;2022-09-03T14:02:27;2.88;;;1.60;;
65581;SDS011;52231;40.090;18.348;2022-09-03T14:08:10;4.93;;;1.42;;
65581;SDS011;52231;40.090;18.348;2022-09-03T14:17:09;5.35;;;1.90;;
65581;SDS011;52231;40.090;18.348;2022-09-03T14:19:51;4.35;;;1.58;;
65581;SDS011;52231;40.090;18.348;2022-09-03T14:25:31;2.55;;;1.40;;
65581;SDS011;52231;40.090;18.348;2022-09-03T14:31:28;3.38;;;1.33;;
65581;SDS011;52231;40.090;18.348;2022-09-03T14:40:18;3.08;;;1.48;;
65581;SDS011;52231;40.090;18.348;2022-09-03T14:52:19;5.50;;;1.60;;
65581;SDS011;52231;40.090;18.348;2022-09-03T15:00:21;4.70;;;1.73;;
65581;SDS011;52231;40.090;18.348;2022-09-03T15:11:30;20.10;;;11.35;;
65581;SDS011;52231;40.090;18.348;2022-09-03T15:17:26;3.97;;;1.63;;
65581;SDS011;52231;40.090;18.348;2022-09-03T15:23:10;7.50;;;2.42;;
65581;SDS011;52231;40.090;18.348;2022-09-03T15:34:39;4.55;;;1.73;;
65581;SDS011;52231;40.090;18.348;2022-09-03T15:40:27;4.97;;;1.35;;
65581;SDS011;52231;40.090;18.348;2022-09-03T15:42:59;4.22;;;1.50;;
65581;SDS011;52231;40.090;18.348;2022-09-03T15:45:48;4.32;;;1.50;;
65581;SDS011;52231;40.090;18.348;2022-09-03T15:49:07;2.72;;;1.30;;
65581;SDS011;52231;40.090;18.348;2022-09-03T15:51:29;4.32;;;1.60;;
65581;SDS011;52231;40.090;18.348;2022-09-03T15:54:20;5.82;;;1.58;;
65581;SDS011;52231;40.090;18.348;2022-09-03T15:57:09;3.50;;;1.50;;
65581;SDS011;52231;40.090;18.348;2022-09-03T15:59:54;3.60;;;1.35;;
65581;SDS011;52231;40.090;18.348;2022-09-03T16:05:18;6.63;;;1.42;;
65581;SDS011;52231;40.090;18.348;2022-09-03T16:08:07;3.53;;;1.45;;
65581;SDS011;52231;40.090;18.348;2022-09-03T16:10:57;2.97;;;1.40;;
65581;SDS011;52231;40.090;18.348;2022-09-03T16:19:44;3.47;;;1.63;;
65581;SDS011;52231;40.090;18.348;2022-09-03T16:28:19;4.40;;;1.50;;
65581;SDS011;52231;40.090;18.348;2022-09-03T16:30:59;2.00;;;1.55;;
65581;SDS011;52231;40.090;18.348;2022-09-03T16:33:42;5.07;;;1.60;;
65581;SDS011;52231;40.090;18.348;2022-09-03T16:36:26;3.83;;;1.60;;
65581;SDS011;52231;40.090;18.348;2022-09-03T16:44:49;6.30;;;1.80;;
65581;SDS011;52231;40.090;18.348;2022-09-03T16:58:51;2.08;;;1.20;;
65581;SDS011;52231;40.090;18.348;2022-09-03T17:10:05;5.00;;;2.00;;
65581;SDS011;52231;40.090;18.348;2022-09-03T17:20:53;4.32;;;2.03;;
65581;SDS011;52231;40.090;18.348;2022-09-03T17:23:50;7.35;;;2.08;;
65581;SDS011;52231;40.090;18.348;2022-09-03T17:26:37;7.38;;;2.45;;
65581;SDS011;52231;40.090;18.348;2022-09-03T17:29:39;7.70;;;2.65;;
65581;SDS011;52231;40.090;18.348;2022-09-03T17:32:24;10.95;;;5.00;;
65581;SDS011;52231;40.090;18.348;2022-09-03T17:40:44;11.93;;;4.07;;
65581;SDS011;52231;40.090;18.348;2022-09-03T17:43:30;8.88;;;2.88;;
65581;SDS011;52231;40.090;18.348;2022-09-03T17:48:52;9.93;;;3.67;;
65581;SDS011;52231;40.090;18.348;2022-09-03T17:59:50;10.63;;;3.63;;
65581;SDS011;52231;40.090;18.348;2022-09-03T18:02:49;7.95;;;3.17;;
65581;SDS011;52231;40.090;18.348;2022-09-03T18:05:20;8.40;;;3.08;;
65581;SDS011;52231;40.090;18.348;2022-09-03T18:07:54;7.72;;;3.40;;
65581;SDS011;52231;40.090;18.348;2022-09-03T18:13:42;8.75;;;3.65;;
65581;SDS011;52231;40.090;18.348;2022-09-03T18:21:59;10.13;;;3.80;;
65581;SDS011;52231;40.090;18.348;2022-09-03T18:27:42;11.65;;;3.95;;
65581;SDS011;52231;40.090;18.348;2022-09-03T18:30:32;9.55;;;3.88;;
65581;SDS011;52231;40.090;18.348;2022-09-03T18:33:20;10.60;;;3.85;;
65581;SDS011;52231;40.090;18.348;2022-09-03T18:36:10;9.45;;;3.63;;
65581;SDS011;52231;40.090;18.348;2022-09-03T18:39:11;9.05;;;3.40;;
65581;SDS011;52231;40.090;18.348;2022-09-03T18:42:08;7.47;;;3.67;;
65581;SDS011;52231;40.090;18.348;2022-09-03T18:49:33;9.52;;;3.90;;
65581;SDS011;52231;40.090;18.348;2022-09-03T18:52:24;9.30;;;3.80;;
65581;SDS011;52231;40.090;18.348;2022-09-03T18:55:18;9.23;;;3.63;;
65581;SDS011;52231;40.090;18.348;2022-09-03T19:02:06;8.30;;;3.30;;
65581;SDS011;52231;40.090;18.348;2022-09-03T19:05:52;12.70;;;5.00;;
65581;SDS011;52231;40.090;18.348;2022-09-03T19:24:03;8.32;;;4.45;;
65581;SDS011;52231;40.090;18.348;2022-09-03T19:30:20;11.75;;;4.97;;
65581;SDS011;52231;40.090;18.348;2022-09-03T19:33:17;11.23;;;5.07;;
65581;SDS011;52231;40.090;18.348;2022-09-03T19:39:30;10.45;;;5.18;;
65581;SDS011;52231;40.090;18.348;2022-09-03T19:42:50;11.27;;;4.93;;
65581;SDS011;52231;40.090;18.348;2022-09-03T19:46:07;10.98;;;5.15;;
65581;SDS011;52231;40.090;18.348;2022-09-03T19:52:01;10.43;;;4.50;;
65581;SDS011;52231;40.090;18.348;2022-09-03T19:55:19;9.38;;;4.60;;
65581;SDS011;52231;40.090;18.348;2022-09-03T19:58:10;12.50;;;4.70;;
65581;SDS011;52231;40.090;18.348;2022-09-03T20:01:10;9.35;;;4.70;;
65581;SDS011;52231;40.090;18.348;2022-09-03T20:03:58;8.52;;;4.50;;
65581;SDS011;52231;40.090;18.348;2022-09-03T20:06:51;10.40;;;4.80;;
65581;SDS011;52231;40.090;18.348;2022-09-03T20:09:39;9.32;;;4.05;;
65581;SDS011;52231;40.090;18.348;2022-09-03T20:12:30;11.40;;;4.70;;
65581;SDS011;52231;40.090;18.348;2022-09-03T20:15:03;9.90;;;4.30;;
65581;SDS011;52231;40.090;18.348;2022-09-03T20:20:33;10.30;;;4.50;;
65581;SDS011;52231;40.090;18.348;2022-09-03T20:23:16;9.20;;;4.45;;
65581;SDS011;52231;40.090;18.348;2022-09-03T20:26:27;11.32;;;4.78;;
65581;SDS011;52231;40.090;18.348;2022-09-03T20:35:09;9.55;;;3.78;;
65581;SDS011;52231;40.090;18.348;2022-09-03T20:38:16;7.53;;;3.72;;
65581;SDS011;52231;40.090;18.348;2022-09-03T20:40:52;8.10;;;3.92;;
65581;SDS011;52231;40.090;18.348;2022-09-03T20:52:14;10.68;;;4.28;;
65581;SDS011;52231;40.090;18.348;2022-09-03T21:02:50;8.57;;;3.90;;
65581;SDS011;52231;40.090;18.348;2022-09-03T21:05:28;8.32;;;3.55;;
65581;SDS011;52231;40.090;18.348;2022-09-03T21:11:01;7.93;;;3.70;;
65581;SDS011;52231;40.090;18.348;2022-09-03T21:22:14;8.13;;;3.92;;
65581;SDS011;52231;40.090;18.348;2022-09-03T21:25:00;7.75;;;3.58;;
65581;SDS011;52231;40.090;18.348;2022-09-03T21:27:32;7.88;;;3.70;;
65581;SDS011;52231;40.090;18.348;2022-09-03T21:30:08;9.73;;;3.78;;
65581;SDS011;52231;40.090;18.348;2022-09-03T21:32:46;8.70;;;3.67;;
65581;SDS011;52231;40.090;18.348;2022-09-03T21:35:26;9.32;;;3.85;;
65581;SDS011;52231;40.090;18.348;2022-09-03T21:38:06;7.97;;;3.60;;
65581;SDS011;52231;40.090;18.348;2022-09-03T21:40:43;7.63;;;3.80;;
65581;SDS011;52231;40.090;18.348;2022-09-03T21:46:48;9.57;;;3.60;;
65581;SDS011;52231;40.090;18.348;2022-09-03T21:49:27;8.02;;;4.03;;
65581;SDS011;52231;40.090;18.348;2022-09-03T21:52:06;7.63;;;3.50;;
65581;SDS011;52231;40.090;18.348;2022-09-03T22:00:26;8.20;;;3.85;;
65581;SDS011;52231;40.090;18.348;2022-09-03T22:03:02;10.38;;;3.70;;
65581;SDS011;52231;40.090;18.348;2022-09-03T22:05:56;8.93;;;3.58;;
65581;SDS011;52231;40.090;18.348;2022-09-03T22:08:30;8.52;;;3.50;;
65581;SDS011;52231;40.090;18.348;2022-09-03T22:11:09;8.45;;;3.92;;
65581;SDS011;52231;40.090;18.348;2022-09-03T22:16:22;9.57;;;4.07;;